Time;durP1;ratioP1;P1;durP2;ratioP2;P2;SDS_P1;SDS_P2;PMS_P1;PMS_P2;Temp;Humidity;BMP_temperature;BMP_pressure;BME280_temperature;BME280_humidity;BME280_pressure;Samples;Min_cycle;Max_cycle;Signal;HPM_P1;HPM_P2
2023/03/05 00:01:52;;;;;;;13.18;1.90;;;4.90;99.90;;;;;;4650024;30;20206;-76
2023/03/05 00:04:17;;;;;;;11.15;1.42;;;4.90;99.90;;;;;;4644248;30;20631;-78
2023/03/05 00:06:43;;;;;;;8.00;1.45;;;4.90;99.90;;;;;;4661615;30;20200;-75
2023/03/05 00:09:09;;;;;;;11.15;1.75;;;5.00;99.90;;;;;;4676016;30;20221;-74
2023/03/05 00:11:35;;;;;;;7.80;1.65;;;5.00;99.90;;;;;;4680931;30;20197;-74
2023/03/05 00:14:02;;;;;;;12.80;1.80;;;5.00;99.90;;;;;;4669117;30;20197;-77
2023/03/05 00:16:29;;;;;;;5.63;1.42;;;5.00;99.90;;;;;;4634888;30;20261;-73
2023/03/05 00:18:56;;;;;;;8.90;1.45;;;5.00;99.90;;;;;;4672922;30;20205;-73
2023/03/05 00:21:34;;;;;;;7.00;1.48;;;5.00;99.90;;;;;;4682924;30;20222;-73
2023/03/05 00:24:02;;;;;;;5.15;1.23;;;5.00;99.90;;;;;;4679536;30;20245;-74
2023/03/05 00:26:29;;;;;;;10.70;1.23;;;5.00;99.90;;;;;;4653530;30;20193;-74
2023/03/05 00:28:57;;;;;;;10.10;1.52;;;5.00;99.90;;;;;;4674665;30;20217;-74
2023/03/05 00:31:29;;;;;;;7.88;1.30;;;5.00;99.90;;;;;;4680878;30;20614;-74
2023/03/05 00:33:56;;;;;;;10.10;1.70;;;5.00;99.90;;;;;;4659421;30;20200;-76
2023/03/05 00:36:23;;;;;;;6.55;1.40;;;5.00;99.90;;;;;;4668928;30;20197;-74
2023/03/05 00:38:49;;;;;;;11.65;1.77;;;5.00;99.90;;;;;;4673129;30;20197;-74
2023/03/05 00:41:15;;;;;;;8.77;1.92;;;5.00;99.90;;;;;;4682853;30;20277;-74
2023/03/05 00:43:41;;;;;;;9.70;1.45;;;5.00;99.90;;;;;;4679242;30;20236;-74
2023/03/05 00:46:07;;;;;;;10.55;1.70;;;5.00;99.90;;;;;;4670466;30;20640;-73
2023/03/05 00:48:32;;;;;;;7.00;1.73;;;5.00;99.90;;;;;;4664076;30;20228;-73
2023/03/05 00:50:58;;;;;;;8.60;1.40;;;5.00;99.90;;;;;;4662904;30;20228;-73
2023/03/05 00:53:24;;;;;;;11.13;1.60;;;5.00;99.90;;;;;;4679474;30;20574;-72
2023/03/05 00:55:51;;;;;;;8.80;1.92;;;5.10;99.90;;;;;;4650129;30;20652;-73
2023/03/05 00:58:17;;;;;;;8.73;1.85;;;5.00;99.90;;;;;;4653273;30;20302;-74
2023/03/05 01:00:42;;;;;;;10.02;1.70;;;5.10;99.90;;;;;;4663608;30;20193;-72
2023/03/05 01:03:08;;;;;;;12.32;1.48;;;5.00;99.90;;;;;;4653594;30;20214;-72
2023/03/05 01:05:34;;;;;;;5.88;1.30;;;5.00;99.90;;;;;;4664580;30;20345;-74
2023/03/05 01:08:00;;;;;;;5.00;1.10;;;5.00;99.90;;;;;;4655435;30;20721;-75
2023/03/05 01:10:26;;;;;;;6.80;0.98;;;5.00;99.90;;;;;;4648909;30;20315;-72
2023/03/05 01:12:56;;;;;;;4.95;1.20;;;5.00;99.90;;;;;;4679153;30;20204;-72
2023/03/05 01:15:23;;;;;;;10.57;1.02;;;5.00;99.90;;;;;;4661393;30;20275;-73
2023/03/05 01:17:48;;;;;;;5.05;1.00;;;5.00;99.90;;;;;;4663530;30;20198;-73
2023/03/05 01:20:17;;;;;;;7.88;0.98;;;5.00;99.90;;;;;;4648490;30;20634;-73
2023/03/05 01:22:43;;;;;;;7.25;1.10;;;4.90;99.90;;;;;;4664131;30;20193;-74
2023/03/05 01:25:10;;;;;;;6.30;0.93;;;5.00;99.90;;;;;;4666945;30;20196;-72
2023/03/05 01:27:36;;;;;;;3.15;0.90;;;4.90;99.90;;;;;;4662931;30;20556;-73
2023/03/05 01:30:03;;;;;;;7.45;1.35;;;5.00;99.90;;;;;;4640607;30;20235;-72
2023/03/05 01:32:28;;;;;;;6.22;1.20;;;4.90;99.90;;;;;;4664200;30;20652;-72
2023/03/05 01:34:54;;;;;;;5.65;1.02;;;4.90;99.90;;;;;;4666708;30;20232;-72
2023/03/05 01:37:20;;;;;;;4.80;0.98;;;4.90;99.90;;;;;;4684605;30;20564;-75
2023/03/05 01:39:46;;;;;;;3.28;1.17;;;4.90;99.90;;;;;;4670206;30;20205;-75
2023/03/05 01:42:11;;;;;;;5.60;1.15;;;4.90;99.90;;;;;;4668076;30;20608;-74
2023/03/05 01:44:38;;;;;;;9.35;1.20;;;4.90;99.90;;;;;;4681721;30;20216;-75
2023/03/05 01:47:04;;;;;;;7.88;1.20;;;4.90;99.90;;;;;;4685698;30;20236;-71
2023/03/05 01:49:34;;;;;;;5.88;1.30;;;4.90;99.90;;;;;;4655239;30;20652;-79
2023/03/05 01:52:16;;;;;;;8.00;1.30;;;4.90;99.90;;;;;;4645437;30;20285;-73
2023/03/05 01:54:46;;;;;;;6.85;1.20;;;4.90;99.90;;;;;;4650761;30;20688;-73
2023/03/05 01:57:21;;;;;;;7.13;1.15;;;4.90;99.90;;;;;;4667863;30;20259;-73
2023/03/05 01:59:52;;;;;;;3.80;0.88;;;4.90;99.90;;;;;;4660666;30;20189;-73
2023/03/05 02:02:20;;;;;;;9.82;1.30;;;4.90;99.90;;;;;;4638994;30;20182;-73
2023/03/05 02:05:03;;;;;;;8.07;1.58;;;4.90;99.90;;;;;;4683598;30;20647;-72
2023/03/05 02:07:30;;;;;;;3.85;1.10;;;4.90;99.90;;;;;;4667040;30;20216;-73
2023/03/05 02:09:56;;;;;;;6.65;1.35;;;4.90;99.90;;;;;;4663692;30;20233;-72
2023/03/05 02:12:22;;;;;;;9.45;1.05;;;4.90;99.90;;;;;;4649797;30;20197;-78
2023/03/05 02:14:57;;;;;;;4.80;0.93;;;4.90;99.90;;;;;;4679074;30;20205;-74
2023/03/05 02:17:26;;;;;;;7.18;1.35;;;4.90;99.90;;;;;;4682206;30;20203;-73
2023/03/05 02:19:55;;;;;;;6.35;1.30;;;4.80;99.90;;;;;;4684126;30;20581;-73
2023/03/05 02:22:22;;;;;;;7.13;1.23;;;4.80;99.90;;;;;;4640484;30;20288;-74
2023/03/05 02:24:49;;;;;;;5.82;1.08;;;4.80;99.90;;;;;;4681972;30;20204;-72
2023/03/05 02:27:15;;;;;;;6.38;1.40;;;4.90;99.90;;;;;;4667992;30;20197;-73
2023/03/05 02:29:44;;;;;;;5.80;1.20;;;4.90;99.90;;;;;;4677128;30;20695;-73
2023/03/05 02:32:11;;;;;;;8.02;1.30;;;4.80;99.90;;;;;;4673415;30;20239;-72
2023/03/05 02:34:37;;;;;;;6.47;1.38;;;4.80;99.90;;;;;;4677315;30;20536;-72
2023/03/05 02:37:07;;;;;;;8.68;1.50;;;4.90;99.90;;;;;;4652379;30;20202;-77
2023/03/05 02:39:34;;;;;;;8.60;1.35;;;4.80;99.90;;;;;;4665643;30;20208;-72
2023/03/05 02:42:00;;;;;;;3.97;1.33;;;4.80;99.90;;;;;;4657007;30;20197;-75
2023/03/05 02:44:27;;;;;;;4.25;0.95;;;4.80;99.90;;;;;;4644038;30;20693;-72
2023/03/05 02:46:52;;;;;;;3.15;1.10;;;4.90;99.90;;;;;;4666413;30;20201;-73
2023/03/05 02:49:18;;;;;;;4.60;1.05;;;4.80;99.90;;;;;;4663384;30;20240;-73
2023/03/05 02:51:44;;;;;;;6.40;1.65;;;4.80;99.90;;;;;;4666134;30;20193;-73
2023/03/05 02:54:10;;;;;;;5.57;1.20;;;4.80;99.90;;;;;;4650514;30;20576;-73
2023/03/05 02:56:38;;;;;;;7.50;1.23;;;4.80;99.90;;;;;;4651082;30;20233;-74
2023/03/05 02:59:04;;;;;;;6.15;1.48;;;4.80;99.90;;;;;;4651239;30;20203;-72
2023/03/05 03:01:30;;;;;;;8.73;1.50;;;4.80;99.90;;;;;;4651860;30;20194;-75
2023/03/05 03:03:56;;;;;;;3.60;1.00;;;4.80;99.90;;;;;;4643461;30;20195;-74
2023/03/05 03:06:22;;;;;;;6.18;1.27;;;4.70;99.90;;;;;;4665746;30;20201;-72
2023/03/05 03:08:48;;;;;;;5.50;1.08;;;4.70;99.90;;;;;;4650759;30;20321;-72
2023/03/05 03:11:13;;;;;;;4.68;1.00;;;4.70;99.90;;;;;;4667175;30;20272;-72
2023/03/05 03:13:40;;;;;;;5.82;1.05;;;4.60;99.90;;;;;;4633939;30;20201;-74
2023/03/05 03:16:12;;;;;;;10.15;1.33;;;4.60;99.90;;;;;;4665339;30;20197;-72
2023/03/05 03:18:38;;;;;;;6.43;1.17;;;4.60;99.90;;;;;;4673546;30;20228;-73
2023/03/05 03:21:05;;;;;;;3.25;1.23;;;4.60;99.90;;;;;;4670525;30;20221;-72
2023/03/05 03:23:30;;;;;;;5.60;1.33;;;4.50;99.90;;;;;;4668164;30;20205;-72
2023/03/05 03:25:57;;;;;;;9.20;1.15;;;4.50;99.90;;;;;;4650976;30;20284;-72
2023/03/05 03:28:22;;;;;;;7.50;1.13;;;4.50;99.90;;;;;;4670974;30;20263;-73
2023/03/05 03:30:48;;;;;;;7.82;1.17;;;4.50;99.90;;;;;;4653371;30;20208;-72
2023/03/05 03:33:16;;;;;;;7.40;1.02;;;4.50;99.90;;;;;;4669336;30;20686;-72
2023/03/05 03:35:45;;;;;;;4.50;1.20;;;4.50;99.90;;;;;;4657013;30;20875;-74
2023/03/05 03:38:12;;;;;;;8.10;1.35;;;4.50;99.90;;;;;;4666441;30;20196;-73
2023/03/05 03:40:40;;;;;;;12.65;1.52;;;4.50;99.90;;;;;;4672111;30;20206;-73
2023/03/05 03:43:07;;;;;;;8.60;1.50;;;4.50;99.90;;;;;;4667513;30;20718;-73
2023/03/05 03:45:33;;;;;;;6.72;1.75;;;4.50;99.90;;;;;;4669168;30;20262;-77
2023/03/05 03:47:58;;;;;;;3.67;1.13;;;4.50;99.90;;;;;;4662155;30;20200;-72
2023/03/05 03:50:24;;;;;;;7.25;1.38;;;4.40;99.90;;;;;;4683358;30;20236;-74
2023/03/05 03:52:51;;;;;;;7.30;1.38;;;4.40;99.90;;;;;;4676399;30;20199;-72
2023/03/05 03:55:16;;;;;;;5.50;1.30;;;4.40;99.90;;;;;;4680152;30;20196;-75
2023/03/05 03:57:42;;;;;;;8.30;1.40;;;4.40;99.90;;;;;;4657035;30;20678;-73
2023/03/05 04:00:10;;;;;;;6.38;1.02;;;4.30;99.90;;;;;;4667602;30;20223;-72
2023/03/05 04:02:38;;;;;;;3.95;1.00;;;4.30;99.90;;;;;;4672127;30;20525;-72
2023/03/05 04:05:04;;;;;;;2.80;1.00;;;4.30;99.90;;;;;;4661957;30;20656;-75
2023/03/05 04:07:30;;;;;;;2.85;0.80;;;4.20;99.90;;;;;;4662002;30;20271;-73
2023/03/05 04:09:56;;;;;;;3.60;1.00;;;4.20;99.90;;;;;;4682713;30;20232;-72
2023/03/05 04:12:22;;;;;;;6.00;1.10;;;4.10;99.90;;;;;;4666339;30;20259;-74
2023/03/05 04:14:48;;;;;;;2.75;1.00;;;4.10;99.90;;;;;;4649173;30;20271;-73
2023/03/05 04:17:15;;;;;;;6.70;1.25;;;4.10;99.90;;;;;;4668893;30;20578;-72
2023/03/05 04:19:41;;;;;;;5.93;1.00;;;4.10;99.90;;;;;;4659941;30;20270;-73
2023/03/05 04:22:12;;;;;;;2.20;0.98;;;4.00;99.90;;;;;;4666116;30;20263;-73
2023/03/05 04:24:38;;;;;;;3.45;0.90;;;4.10;99.90;;;;;;4662734;30;20252;-73
2023/03/05 04:27:04;;;;;;;5.63;1.02;;;4.10;99.90;;;;;;4647858;30;20198;-75
2023/03/05 04:29:30;;;;;;;3.45;1.10;;;4.10;99.90;;;;;;4656396;30;20612;-72
2023/03/05 04:31:56;;;;;;;6.85;1.50;;;4.10;99.90;;;;;;4665516;30;20225;-73
2023/03/05 04:34:22;;;;;;;10.98;1.42;;;4.10;99.90;;;;;;4641579;30;20253;-74
2023/03/05 04:36:48;;;;;;;7.15;1.30;;;4.20;99.90;;;;;;4681558;30;20197;-74
2023/03/05 04:39:14;;;;;;;5.68;1.23;;;4.20;99.90;;;;;;4663922;30;20213;-73
2023/03/05 04:41:39;;;;;;;4.63;1.40;;;4.20;99.90;;;;;;4665343;30;20201;-73
2023/03/05 04:44:05;;;;;;;5.72;1.10;;;4.20;99.90;;;;;;4662344;30;20696;-73
2023/03/05 04:46:31;;;;;;;4.10;0.93;;;4.20;99.90;;;;;;4649048;30;20205;-73
2023/03/05 04:48:57;;;;;;;9.02;1.48;;;4.20;99.90;;;;;;4656054;30;20710;-76
2023/03/05 04:51:23;;;;;;;5.60;1.25;;;4.20;99.90;;;;;;4668595;30;20208;-73
2023/03/05 04:53:49;;;;;;;15.82;1.50;;;4.20;99.90;;;;;;4679603;30;20259;-73
2023/03/05 04:56:15;;;;;;;8.43;1.50;;;4.20;99.90;;;;;;4670934;30;20307;-73
2023/03/05 04:58:41;;;;;;;7.38;1.40;;;4.20;99.90;;;;;;4663353;30;20249;-73
2023/03/05 05:01:07;;;;;;;4.30;1.42;;;4.30;99.90;;;;;;4656884;30;20224;-73
2023/03/05 05:03:33;;;;;;;7.38;1.58;;;4.20;99.90;;;;;;4666512;30;20279;-73
2023/03/05 05:06:00;;;;;;;8.50;1.40;;;4.20;99.90;;;;;;4677100;30;20201;-72
2023/03/05 05:08:26;;;;;;;10.57;1.50;;;4.20;99.90;;;;;;4664644;30;20216;-74
2023/03/05 05:11:00;;;;;;;8.35;1.40;;;4.30;99.90;;;;;;4656746;30;20231;-73
2023/03/05 05:13:26;;;;;;;6.25;1.30;;;4.30;99.90;;;;;;4679087;30;20211;-72
2023/03/05 05:15:52;;;;;;;8.27;1.45;;;4.30;99.90;;;;;;4663112;30;20267;-73
2023/03/05 05:18:18;;;;;;;6.15;1.50;;;4.30;99.90;;;;;;4665303;30;20651;-73
2023/03/05 05:20:44;;;;;;;4.40;1.00;;;4.30;99.90;;;;;;4652842;30;20201;-72
2023/03/05 05:23:10;;;;;;;6.80;1.33;;;4.30;99.90;;;;;;4664101;30;20322;-72
2023/03/05 05:25:36;;;;;;;3.47;1.10;;;4.30;99.90;;;;;;4670603;30;20273;-72
2023/03/05 05:28:02;;;;;;;7.65;1.05;;;4.30;99.90;;;;;;4652359;30;20244;-73
2023/03/05 05:30:27;;;;;;;4.95;1.10;;;4.30;99.90;;;;;;4655445;30;20825;-73
2023/03/05 05:32:53;;;;;;;4.88;1.20;;;4.30;99.90;;;;;;4657793;30;20193;-74
2023/03/05 05:35:19;;;;;;;8.48;1.20;;;4.30;99.90;;;;;;4656895;30;20562;-74
2023/03/05 05:37:45;;;;;;;4.75;1.17;;;4.30;99.90;;;;;;4641471;30;20198;-73
2023/03/05 05:40:11;;;;;;;9.32;1.02;;;4.30;99.90;;;;;;4655163;30;20209;-74
2023/03/05 05:42:37;;;;;;;3.65;0.90;;;4.20;99.90;;;;;;4649913;30;20229;-77
2023/03/05 05:45:03;;;;;;;8.60;1.55;;;4.30;99.90;;;;;;4650486;30;20297;-74
2023/03/05 05:47:29;;;;;;;6.93;1.08;;;4.20;99.90;;;;;;4663223;30;20198;-76
2023/03/05 05:49:55;;;;;;;8.05;1.27;;;4.10;99.90;;;;;;4666136;30;20603;-74
2023/03/05 05:52:21;;;;;;;5.72;1.10;;;4.10;99.90;;;;;;4674023;30;20194;-80
2023/03/05 05:54:48;;;;;;;8.55;1.20;;;4.10;99.90;;;;;;4633990;30;20611;-73
2023/03/05 05:57:14;;;;;;;6.50;1.00;;;4.00;99.90;;;;;;4661551;30;20242;-73
2023/03/05 05:59:40;;;;;;;3.80;1.10;;;4.00;99.90;;;;;;4663828;30;20317;-75
2023/03/05 06:02:06;;;;;;;5.03;1.35;;;4.10;99.90;;;;;;4639606;30;20205;-74
2023/03/05 06:04:33;;;;;;;5.93;1.20;;;4.10;99.90;;;;;;4671288;30;20266;-73
2023/03/05 06:06:59;;;;;;;10.75;1.00;;;4.10;99.90;;;;;;4682031;30;20193;-74
2023/03/05 06:09:25;;;;;;;7.05;1.20;;;4.10;99.90;;;;;;4664790;30;20238;-78
2023/03/05 06:11:51;;;;;;;4.72;1.33;;;4.10;99.90;;;;;;4663921;30;20206;-78
2023/03/05 06:14:17;;;;;;;9.40;1.08;;;4.10;99.90;;;;;;4667393;30;20244;-74
2023/03/05 06:16:43;;;;;;;10.88;1.30;;;4.10;99.90;;;;;;4674192;30;20208;-73
2023/03/05 06:19:14;;;;;;;5.07;0.82;;;4.10;99.90;;;;;;4663813;30;20200;-73
2023/03/05 06:21:42;;;;;;;6.38;1.17;;;4.10;99.90;;;;;;4667753;30;20201;-73
2023/03/05 06:24:08;;;;;;;11.65;1.63;;;4.10;99.90;;;;;;4656102;30;20288;-77
2023/03/05 06:26:34;;;;;;;10.10;1.20;;;4.10;99.90;;;;;;4666513;30;20196;-74
2023/03/05 06:29:00;;;;;;;8.15;1.30;;;4.10;99.90;;;;;;4651492;30;20229;-76
2023/03/05 06:31:28;;;;;;;7.50;1.25;;;4.10;99.90;;;;;;4667768;30;20903;-76
2023/03/05 06:34:02;;;;;;;4.95;0.90;;;4.10;99.90;;;;;;4642319;30;20198;-78
2023/03/05 06:36:28;;;;;;;7.57;1.50;;;4.10;99.90;;;;;;4650698;30;20170;-73
2023/03/05 06:38:54;;;;;;;4.90;1.00;;;4.10;99.90;;;;;;4670470;30;20234;-73
2023/03/05 06:41:22;;;;;;;5.50;1.50;;;4.10;99.90;;;;;;4671624;30;20616;-75
2023/03/05 06:43:48;;;;;;;5.45;1.27;;;4.10;99.90;;;;;;4656207;30;20206;-77
2023/03/05 06:46:23;;;;;;;3.83;1.13;;;4.20;99.90;;;;;;4667840;30;20547;-75
2023/03/05 06:48:50;;;;;;;4.65;1.10;;;4.10;99.90;;;;;;4660426;30;20224;-72
2023/03/05 06:51:21;;;;;;;4.82;1.20;;;4.20;99.90;;;;;;4684429;30;20687;-73
2023/03/05 06:53:48;;;;;;;3.13;1.17;;;4.20;99.90;;;;;;4664454;30;20642;-74
2023/03/05 06:56:15;;;;;;;3.47;1.15;;;4.20;99.90;;;;;;4663145;30;20201;-73
2023/03/05 06:58:43;;;;;;;4.70;1.00;;;4.20;99.90;;;;;;4679548;30;20236;-74
2023/03/05 07:01:09;;;;;;;7.82;1.30;;;4.20;99.90;;;;;;4669013;30;20218;-72
2023/03/05 07:03:36;;;;;;;6.53;1.50;;;4.20;99.90;;;;;;4667618;30;20307;-71
2023/03/05 07:06:03;;;;;;;8.85;1.42;;;4.20;99.90;;;;;;4667102;30;20185;-73
2023/03/05 07:08:29;;;;;;;7.45;1.33;;;4.20;99.90;;;;;;4672201;30;20603;-73
2023/03/05 07:10:55;;;;;;;10.82;1.38;;;4.20;99.90;;;;;;4684395;30;20195;-73
2023/03/05 07:13:20;;;;;;;5.30;1.60;;;4.30;99.90;;;;;;4665320;30;20205;-73
2023/03/05 07:15:46;;;;;;;8.98;1.58;;;4.30;99.90;;;;;;4668375;30;20196;-72
2023/03/05 07:18:12;;;;;;;8.40;1.60;;;4.20;99.90;;;;;;4658531;30;20212;-73
2023/03/05 07:20:37;;;;;;;9.75;1.60;;;4.20;99.90;;;;;;4651615;30;20193;-73
2023/03/05 07:23:03;;;;;;;10.95;1.80;;;4.30;99.90;;;;;;4669732;30;20651;-74
2023/03/05 07:25:29;;;;;;;10.15;1.48;;;4.20;99.90;;;;;;4639825;30;20224;-74
2023/03/05 07:27:55;;;;;;;12.70;1.40;;;4.20;99.90;;;;;;4653425;30;20202;-74
2023/03/05 07:30:21;;;;;;;7.80;1.27;;;4.30;99.90;;;;;;4680729;30;20333;-72
2023/03/05 07:32:47;;;;;;;8.05;1.27;;;4.30;99.90;;;;;;4665967;30;20220;-73
2023/03/05 07:35:13;;;;;;;7.20;1.55;;;4.40;99.90;;;;;;4682289;30;20562;-74
2023/03/05 07:37:39;;;;;;;5.22;1.10;;;4.40;99.90;;;;;;4670445;30;20404;-77
2023/03/05 07:40:06;;;;;;;9.88;1.77;;;4.40;99.90;;;;;;4658452;30;20247;-75
2023/03/05 07:42:32;;;;;;;12.65;1.60;;;4.40;99.90;;;;;;4663066;30;20198;-74
2023/03/05 07:45:09;;;;;;;9.27;1.30;;;4.50;99.90;;;;;;4638489;30;20197;-73
2023/03/05 07:47:35;;;;;;;4.28;0.98;;;4.50;99.90;;;;;;4661013;30;20229;-75
2023/03/05 07:50:02;;;;;;;9.75;1.70;;;4.40;99.90;;;;;;4662950;30;20697;-81
2023/03/05 07:52:28;;;;;;;7.80;1.80;;;4.50;99.90;;;;;;4643990;30;20690;-73
2023/03/05 07:54:54;;;;;;;8.88;1.50;;;4.50;99.90;;;;;;4659318;30;20221;-72
2023/03/05 07:57:19;;;;;;;4.20;1.38;;;4.50;99.90;;;;;;4655619;30;20682;-78
2023/03/05 07:59:45;;;;;;;4.68;1.05;;;4.50;99.90;;;;;;4681550;30;20211;-73
2023/03/05 08:02:12;;;;;;;6.75;1.17;;;4.60;99.90;;;;;;4659635;30;20215;-74
2023/03/05 08:04:38;;;;;;;8.50;1.30;;;4.60;99.90;;;;;;4641715;30;20255;-72
2023/03/05 08:07:04;;;;;;;11.57;1.65;;;4.70;99.90;;;;;;4677740;30;20205;-74
2023/03/05 08:09:30;;;;;;;10.10;1.40;;;4.80;99.90;;;;;;4629396;30;20221;-74
2023/03/05 08:11:56;;;;;;;9.18;1.40;;;4.80;99.90;;;;;;4668670;30;20702;-74
2023/03/05 08:14:22;;;;;;;4.85;1.30;;;4.90;99.90;;;;;;4650555;30;20201;-74
2023/03/05 08:16:51;;;;;;;12.25;1.35;;;5.00;99.90;;;;;;4666279;30;20220;-74
2023/03/05 08:19:18;;;;;;;10.50;1.67;;;5.10;99.90;;;;;;4655933;30;20255;-75
2023/03/05 08:21:45;;;;;;;8.63;1.40;;;5.20;99.90;;;;;;4665511;30;20324;-73
2023/03/05 08:24:12;;;;;;;7.80;1.45;;;5.30;99.90;;;;;;4676461;30;20208;-73
2023/03/05 08:26:39;;;;;;;4.65;1.13;;;5.40;99.90;;;;;;4679038;30;20244;-73
2023/03/05 08:29:08;;;;;;;5.88;1.40;;;5.60;99.90;;;;;;4626637;30;20355;-76
2023/03/05 08:31:35;;;;;;;10.60;1.80;;;5.80;99.90;;;;;;4659221;30;20197;-73
2023/03/05 08:34:01;;;;;;;9.85;1.58;;;6.00;99.90;;;;;;4665537;30;20224;-73
2023/03/05 08:36:27;;;;;;;8.95;1.30;;;6.30;99.90;;;;;;4661973;30;20200;-76
2023/03/05 08:38:54;;;;;;;9.98;1.60;;;6.60;99.90;;;;;;4679475;30;20197;-75
2023/03/05 08:41:21;;;;;;;7.65;1.52;;;6.90;99.90;;;;;;4663522;30;20189;-74
2023/03/05 08:43:47;;;;;;;10.48;1.70;;;7.30;99.90;;;;;;4662969;30;20212;-73
2023/03/05 08:46:14;;;;;;;10.35;1.38;;;7.60;99.90;;;;;;4664572;30;20197;-74
2023/03/05 08:48:40;;;;;;;10.25;1.70;;;7.80;99.90;;;;;;4664268;30;20201;-74
2023/03/05 08:51:14;;;;;;;7.82;1.60;;;7.90;99.90;;;;;;4642583;30;20194;-73
2023/03/05 08:53:42;;;;;;;8.45;1.58;;;8.00;99.90;;;;;;4663087;30;20190;-74
2023/03/05 08:56:08;;;;;;;7.07;1.70;;;8.00;99.90;;;;;;4662042;30;20213;-74
2023/03/05 08:58:34;;;;;;;7.32;1.52;;;8.00;99.90;;;;;;4664050;30;20244;-74
2023/03/05 09:01:00;;;;;;;6.55;1.73;;;8.00;99.90;;;;;;4648416;30;20197;-74
2023/03/05 09:03:26;;;;;;;7.10;1.60;;;7.90;99.90;;;;;;4650207;30;20197;-74
2023/03/05 09:05:52;;;;;;;7.22;1.30;;;8.00;99.90;;;;;;4664773;30;20197;-74
2023/03/05 09:08:18;;;;;;;10.90;1.70;;;7.90;99.90;;;;;;4663590;30;20256;-77
2023/03/05 09:10:45;;;;;;;5.20;1.15;;;8.00;99.90;;;;;;4662468;30;20217;-75
2023/03/05 09:13:11;;;;;;;4.50;0.90;;;7.90;99.90;;;;;;4662753;30;20255;-74
2023/03/05 09:15:37;;;;;;;2.97;0.77;;;7.70;99.90;;;;;;4664375;30;20695;-74
2023/03/05 09:18:03;;;;;;;3.72;0.90;;;7.40;99.90;;;;;;4663916;30;20211;-74
2023/03/05 09:20:29;;;;;;;4.25;0.93;;;7.20;99.90;;;;;;4664197;30;20619;-75
2023/03/05 09:22:55;;;;;;;4.57;1.10;;;7.00;99.90;;;;;;4647103;30;20656;-74
2023/03/05 09:25:21;;;;;;;4.30;0.95;;;6.90;99.90;;;;;;4660898;30;20714;-75
2023/03/05 09:27:47;;;;;;;1.83;0.73;;;6.90;99.90;;;;;;4664616;30;20195;-75
2023/03/05 09:30:14;;;;;;;2.20;0.70;;;6.80;99.90;;;;;;4665283;30;20237;-75
2023/03/05 09:32:40;;;;;;;6.30;1.48;;;6.90;99.90;;;;;;4649382;30;20209;-76
2023/03/05 09:35:06;;;;;;;4.57;0.95;;;7.10;99.90;;;;;;4669711;30;20204;-78
2023/03/05 09:37:32;;;;;;;4.18;0.60;;;7.40;99.90;;;;;;4633622;30;20718;-75
2023/03/05 09:39:58;;;;;;;3.80;0.85;;;7.70;99.90;;;;;;4645781;30;20208;-74
2023/03/05 09:42:48;;;;;;;4.22;0.77;;;8.10;99.90;;;;;;4658129;30;20212;-75
2023/03/05 09:45:19;;;;;;;4.68;1.00;;;8.50;99.90;;;;;;4645790;30;20197;-77
2023/03/05 09:48:56;;;;;;;5.32;0.93;;;8.90;99.90;;;;;;4632438;30;20199;-75
2023/03/05 09:51:30;;;;;;;2.97;0.90;;;9.40;99.90;;;;;;4560273;31;20223;-76
2023/03/05 09:54:10;;;;;;;6.40;1.02;;;9.80;99.90;;;;;;4636688;30;20221;-80
2023/03/05 09:56:59;;;;;;;5.25;1.10;;;10.10;99.90;;;;;;4646441;30;20603;-75
2023/03/05 09:59:31;;;;;;;6.90;1.30;;;10.40;99.90;;;;;;4637452;30;20245;-76
2023/03/05 10:02:11;;;;;;;4.53;1.20;;;10.70;99.90;;;;;;4650712;30;20946;-75
2023/03/05 10:04:55;;;;;;;6.38;1.65;;;10.80;99.90;;;;;;4636408;30;20197;-74
2023/03/05 10:07:32;;;;;;;6.95;1.55;;;10.90;99.90;;;;;;4667755;30;20265;-74
2023/03/05 10:10:03;;;;;;;4.82;1.48;;;10.80;99.90;;;;;;4646253;30;20217;-75
2023/03/05 10:12:30;;;;;;;5.80;1.60;;;10.70;99.90;;;;;;4635649;30;20541;-74
2023/03/05 10:14:59;;;;;;;8.52;1.55;;;10.50;99.90;;;;;;4651195;30;20196;-75
2023/03/05 10:17:43;;;;;;;6.75;1.30;;;10.30;99.90;;;;;;4648762;30;20201;-75
2023/03/05 10:20:44;;;;;;;5.68;1.60;;;10.00;99.90;;;;;;4646409;30;20670;-76
2023/03/05 10:23:18;;;;;;;10.90;2.15;;;9.80;99.90;;;;;;4654260;30;20204;-75
2023/03/05 10:26:02;;;;;;;9.88;1.33;;;9.50;99.90;;;;;;4683777;30;20196;-73
2023/03/05 10:29:02;;;;;;;10.15;1.85;;;9.30;99.90;;;;;;4651224;30;20327;-79
2023/03/05 10:31:47;;;;;;;7.03;1.40;;;9.10;99.90;;;;;;4620767;30;20211;-77
2023/03/05 10:34:34;;;;;;;8.25;1.95;;;9.00;99.90;;;;;;4665975;30;20201;-78
2023/03/05 10:37:17;;;;;;;9.73;2.25;;;8.90;99.90;;;;;;4667896;30;20189;-79
2023/03/05 10:40:04;;;;;;;9.02;2.00;;;8.80;99.90;;;;;;4648622;30;20575;-81
2023/03/05 10:42:43;;;;;;;7.95;2.30;;;8.80;99.90;;;;;;4662466;30;20198;-81
2023/03/05 10:45:16;;;;;;;7.03;1.50;;;8.80;99.90;;;;;;4666580;30;20213;-78
2023/03/05 10:47:58;;;;;;;7.18;1.30;;;8.80;99.90;;;;;;4653419;30;20739;-83
2023/03/05 10:50:32;;;;;;;5.13;1.60;;;8.90;99.90;;;;;;4642745;30;20293;-80
2023/03/05 10:53:09;;;;;;;4.28;1.40;;;9.10;99.90;;;;;;4643623;30;20246;-73
2023/03/05 10:55:34;;;;;;;8.13;1.67;;;9.20;99.90;;;;;;4685149;30;20269;-79
2023/03/05 10:58:09;;;;;;;6.88;1.98;;;9.20;99.90;;;;;;4681584;30;20245;-78
2023/03/05 11:00:35;;;;;;;8.88;1.90;;;9.20;99.90;;;;;;4671737;30;20229;-79
2023/03/05 11:03:04;;;;;;;4.25;1.10;;;9.30;99.90;;;;;;4627224;30;20197;-77
2023/03/05 11:05:45;;;;;;;5.60;1.40;;;9.40;99.90;;;;;;4684616;30;20220;-78
2023/03/05 11:08:35;;;;;;;12.02;1.40;;;9.70;99.90;;;;;;4681402;30;20197;-77
2023/03/05 11:11:08;;;;;;;4.75;1.73;;;9.90;99.90;;;;;;4658568;30;20214;-86
2023/03/05 11:13:41;;;;;;;8.88;1.27;;;10.10;99.90;;;;;;4646602;30;20200;-84
2023/03/05 11:16:16;;;;;;;3.70;1.25;;;10.40;99.90;;;;;;4674967;30;20192;-81
2023/03/05 11:18:43;;;;;;;7.40;1.30;;;10.50;99.90;;;;;;4668019;30;20291;-82
2023/03/05 11:21:22;;;;;;;4.38;1.23;;;10.60;99.90;;;;;;4633872;30;20209;-82
2023/03/05 11:24:24;;;;;;;7.55;1.25;;;10.60;99.90;;;;;;4657220;30;20256;-84
2023/03/05 11:26:55;;;;;;;5.03;1.08;;;10.70;99.90;;;;;;4619887;30;20204;-81
2023/03/05 11:29:29;;;;;;;5.03;1.20;;;11.00;99.90;;;;;;4662319;30;20362;-80
2023/03/05 11:32:13;;;;;;;3.60;0.90;;;11.10;99.90;;;;;;4636001;30;20573;-79
2023/03/05 11:34:39;;;;;;;5.93;1.20;;;11.20;99.90;;;;;;4645878;30;20228;-78
2023/03/05 11:37:06;;;;;;;6.38;1.00;;;11.30;99.90;;;;;;4637434;30;20197;-80
2023/03/05 11:39:37;;;;;;;4.75;1.10;;;11.30;99.90;;;;;;4666428;30;20208;-80
2023/03/05 11:42:12;;;;;;;5.00;1.00;;;11.30;99.90;;;;;;4633377;30;20204;-79
2023/03/05 11:44:54;;;;;;;2.42;0.82;;;11.30;99.90;;;;;;4623173;30;20193;-79
2023/03/05 11:47:41;;;;;;;5.07;1.40;;;11.30;99.90;;;;;;4663843;30;20277;-84
2023/03/05 11:50:22;;;;;;;5.88;1.30;;;11.10;99.90;;;;;;4642955;30;20221;-78
2023/03/05 11:52:51;;;;;;;3.08;1.05;;;11.00;99.90;;;;;;4641563;30;20259;-79
2023/03/05 11:55:24;;;;;;;4.78;1.55;;;10.90;99.90;;;;;;4639988;30;20200;-79
2023/03/05 11:58:10;;;;;;;5.20;1.00;;;10.90;99.90;;;;;;4649382;30;20269;-78
2023/03/05 12:00:39;;;;;;;6.88;1.30;;;10.90;99.90;;;;;;4649216;30;20201;-83
2023/03/05 12:03:13;;;;;;;3.40;1.02;;;11.00;99.90;;;;;;4643266;30;20280;-84
2023/03/05 12:05:42;;;;;;;5.68;0.90;;;11.00;99.90;;;;;;4662705;30;20647;-86
2023/03/05 12:08:16;;;;;;;7.75;1.33;;;11.00;99.90;;;;;;4656749;30;20205;-83
2023/03/05 12:10:42;;;;;;;4.47;1.40;;;11.00;99.90;;;;;;4651927;30;20647;-84
2023/03/05 12:13:16;;;;;;;6.57;1.20;;;11.10;99.90;;;;;;4652285;30;20202;-84
2023/03/05 12:16:08;;;;;;;5.18;1.02;;;11.30;99.90;;;;;;4635678;30;20258;-78
2023/03/05 12:19:11;;;;;;;6.03;0.90;;;11.40;99.90;;;;;;4656493;30;20268;-82
2023/03/05 12:21:41;;;;;;;4.82;0.90;;;11.50;99.90;;;;;;4650074;30;20201;-79
2023/03/05 12:24:22;;;;;;;4.05;0.98;;;11.60;99.90;;;;;;4661930;30;20197;-82
2023/03/05 12:27:03;;;;;;;12.77;5.03;;;11.70;99.90;;;;;;4641063;30;20212;-78
2023/03/05 12:29:32;;;;;;;5.40;1.30;;;11.70;99.90;;;;;;4634295;30;20230;-78
2023/03/05 12:32:02;;;;;;;5.32;1.50;;;11.60;99.90;;;;;;4620193;30;20264;-83
2023/03/05 12:34:41;;;;;;;6.30;1.35;;;11.30;99.90;;;;;;4669504;30;20274;-92
2023/03/05 12:37:24;;;;;;;6.47;1.52;;;11.10;99.90;;;;;;4662223;30;20208;-80
2023/03/05 12:39:57;;;;;;;7.43;1.40;;;10.80;99.90;;;;;;4666034;30;20651;-80
2023/03/05 12:42:29;;;;;;;6.07;1.17;;;10.70;99.90;;;;;;4652560;30;20208;-79
2023/03/05 12:45:10;;;;;;;5.53;1.20;;;10.60;99.90;;;;;;4668100;30;20196;-78
2023/03/05 12:47:55;;;;;;;4.28;1.00;;;10.50;99.90;;;;;;4665578;30;20612;-79
2023/03/05 12:50:27;;;;;;;5.50;1.20;;;10.40;99.90;;;;;;4648910;30;20577;-80
2023/03/05 12:53:13;;;;;;;6.38;1.55;;;10.40;99.90;;;;;;4655286;30;20232;-83
2023/03/05 12:56:18;;;;;;;3.70;0.93;;;10.30;99.90;;;;;;4657479;30;20236;-81
2023/03/05 12:58:49;;;;;;;4.15;0.93;;;10.30;99.90;;;;;;4665726;30;20675;-84
2023/03/05 13:01:34;;;;;;;4.32;1.10;;;10.40;99.90;;;;;;4650442;30;20316;-85
2023/03/05 13:04:09;;;;;;;4.25;1.15;;;10.40;99.90;;;;;;4646308;30;20215;-83
2023/03/05 13:06:38;;;;;;;4.05;1.08;;;10.40;99.90;;;;;;4650353;30;20284;-84